Arvaiheer, Mongolia
Current Conditions -  °F | °C
As of 1:00 PM on Monday 22 Dec 2014 (Local Time) from ZMUB Reporting Station
Smoke Smoke  
Wind Chill:   Ceiling: Unl
Heat Index:   Visibility: 3mi
Dew Point:   Wind: 0mph
Humidity: 72%   Direction: NA
Pressure: 29.94"   Gusts: NA
Location:  46.27°N, 102.78°E
Report Text: ZMUB 220500Z 00000MPS 5000NW FU NSC M14/M18 Q1014 NOSIG RMK QFE653.6 69 NW MO
Loading
Personal Weather Stations






























Interactive Weather Map New forecast layout! Learn more

10-Day Weather Forecast

Advertisements
Track Severe Weather on mobile